Alabama, New York
Current Conditions -  °F | °C
As of 4:54 AM on Tuesday 27 Jan 2015 (Local Time) from KBUF Reporting Station
Light Snow Light Snow  
Wind Chill: -17°   Ceiling: 1100
Heat Index: -9°   Visibility: 5mi
Dew Point: -11°   Wind: 16mph
Humidity: 84%   Direction: 30°NNE
Pressure: 29.93"   Gusts: 21mph
Location:  43.1°N, 78.39°W
Report Text: KBUF 270954Z 03014G18KT 5SM -SN BR OVC011 M09/M11 A2993 RMK AO2 SLP148 P0000 T10891111 $
Loading
Personal Weather Stations






























Interactive Weather Map New forecast layout! Learn more

10-Day Weather Forecast

Advertisements
Track Severe Weather on mobile